Winthrop, Iowa
Current Conditions -  °F | °C
As of 10:35 AM on Friday 31 Oct 2014 (Local Time) from KIIB Reporting Station
Clear Clear  
Wind Chill: 21°   Ceiling: Unl
Heat Index: 34°   Visibility: 10mi
Dew Point: 23°   Wind: 24mph
Humidity: 65%   Direction: 360°N
Pressure: 30.42"   Gusts: 29mph
Location:  42.47°N, 91.73°W
Report Text: KIIB 311535Z AUTO 36021G25KT 10SM CLR 01/M05 A3042 RMK AO2
Loading
Personal Weather Stations






























Interactive Weather Map
Tropical Storm Tracking
New forecast layout! Learn more

10-Day Weather Forecast

Advertisements
Track Severe Weather on mobile